sensor_id;sensor_type;location;lat;lon;timestamp;pressure;altitude;pressure_sealevel;temperature;humidity
61324;BME280;47203;48.428;11.974;2023-02-19T00:01:32;97221.69;;;17.18;42.62
61324;BME280;47203;48.428;11.974;2023-02-19T00:03:37;97220.91;;;17.18;42.72
61324;BME280;47203;48.428;11.974;2023-02-19T00:05:42;97229.66;;;17.18;42.57
61324;BME280;47203;48.428;11.974;2023-02-19T00:07:49;97226.69;;;17.20;43.01
61324;BME280;47203;48.428;11.974;2023-02-19T00:09:53;97218.41;;;17.21;42.52
61324;BME280;47203;48.428;11.974;2023-02-19T00:11:58;97212.81;;;17.23;42.64
61324;BME280;47203;48.428;11.974;2023-02-19T00:14:03;97211.72;;;17.24;42.69
61324;BME280;47203;48.428;11.974;2023-02-19T00:16:09;97203.75;;;17.24;42.84
61324;BME280;47203;48.428;11.974;2023-02-19T00:18:15;97208.28;;;17.23;42.69
61324;BME280;47203;48.428;11.974;2023-02-19T00:20:20;97201.09;;;17.24;42.61
61324;BME280;47203;48.428;11.974;2023-02-19T00:22:25;97191.53;;;17.23;42.69
61324;BME280;47203;48.428;11.974;2023-02-19T00:24:32;97198.72;;;17.22;42.87
61324;BME280;47203;48.428;11.974;2023-02-19T00:26:37;97190.75;;;17.22;42.58
61324;BME280;47203;48.428;11.974;2023-02-19T00:28:42;97191.63;;;17.18;42.60
61324;BME280;47203;48.428;11.974;2023-02-19T00:30:46;97194.09;;;17.14;43.07
61324;BME280;47203;48.428;11.974;2023-02-19T00:32:51;97187.50;;;17.12;42.62
61324;BME280;47203;48.428;11.974;2023-02-19T00:34:55;97191.25;;;17.10;43.05
61324;BME280;47203;48.428;11.974;2023-02-19T00:37:00;97189.66;;;17.09;42.65
61324;BME280;47203;48.428;11.974;2023-02-19T00:39:05;97185.72;;;17.07;42.74
61324;BME280;47203;48.428;11.974;2023-02-19T00:41:13;97187.09;;;17.04;43.04
61324;BME280;47203;48.428;11.974;2023-02-19T00:43:24;97187.88;;;17.05;43.10
61324;BME280;47203;48.428;11.974;2023-02-19T00:45:29;97185.81;;;17.02;42.62
61324;BME280;47203;48.428;11.974;2023-02-19T00:47:35;97187.69;;;17.01;42.89
61324;BME280;47203;48.428;11.974;2023-02-19T00:49:40;97182.97;;;16.98;42.95
61324;BME280;47203;48.428;11.974;2023-02-19T00:51:45;97182.47;;;16.96;43.21
61324;BME280;47203;48.428;11.974;2023-02-19T00:53:50;97172.41;;;16.93;42.79
61324;BME280;47203;48.428;11.974;2023-02-19T00:55:54;97169.75;;;16.93;43.23
61324;BME280;47203;48.428;11.974;2023-02-19T00:58:02;97168.47;;;16.90;42.90
61324;BME280;47203;48.428;11.974;2023-02-19T01:00:07;97176.22;;;16.87;42.77
61324;BME280;47203;48.428;11.974;2023-02-19T01:02:12;97173.56;;;16.87;42.80
61324;BME280;47203;48.428;11.974;2023-02-19T01:04:17;97170.41;;;16.85;43.19
61324;BME280;47203;48.428;11.974;2023-02-19T01:06:22;97172.56;;;16.83;43.11
61324;BME280;47203;48.428;11.974;2023-02-19T01:08:26;97170.97;;;16.82;43.18
61324;BME280;47203;48.428;11.974;2023-02-19T01:10:34;97166.78;;;16.81;43.28
61324;BME280;47203;48.428;11.974;2023-02-19T01:12:39;97167.53;;;16.81;43.09
61324;BME280;47203;48.428;11.974;2023-02-19T01:14:46;97160.06;;;16.83;43.15
61324;BME280;47203;48.428;11.974;2023-02-19T01:16:50;97160.56;;;16.85;42.97
61324;BME280;47203;48.428;11.974;2023-02-19T01:18:55;97159.75;;;16.85;43.23
61324;BME280;47203;48.428;11.974;2023-02-19T01:21:03;97160.56;;;16.85;42.69
61324;BME280;47203;48.428;11.974;2023-02-19T01:23:08;97155.53;;;16.84;43.04
61324;BME280;47203;48.428;11.974;2023-02-19T01:25:13;97160.66;;;16.80;43.03
61324;BME280;47203;48.428;11.974;2023-02-19T01:27:18;97153.84;;;16.74;42.96
61324;BME280;47203;48.428;11.974;2023-02-19T01:29:23;97148.06;;;16.72;43.15
61324;BME280;47203;48.428;11.974;2023-02-19T01:31:30;97149.13;;;16.71;43.31
61324;BME280;47203;48.428;11.974;2023-02-19T01:33:35;97140.84;;;16.72;43.19
61324;BME280;47203;48.428;11.974;2023-02-19T01:35:40;97140.25;;;16.75;42.85
61324;BME280;47203;48.428;11.974;2023-02-19T01:37:45;97138.91;;;16.78;42.76
61324;BME280;47203;48.428;11.974;2023-02-19T01:39:49;97133.59;;;16.78;43.00
61324;BME280;47203;48.428;11.974;2023-02-19T01:41:54;97132.78;;;16.78;43.16
61324;BME280;47203;48.428;11.974;2023-02-19T01:43:59;97132.28;;;16.75;43.02
61324;BME280;47203;48.428;11.974;2023-02-19T01:46:04;97128.03;;;16.74;42.83
61324;BME280;47203;48.428;11.974;2023-02-19T01:48:12;97128.34;;;16.73;42.86
61324;BME280;47203;48.428;11.974;2023-02-19T01:50:18;97116.16;;;16.72;42.80
61324;BME280;47203;48.428;11.974;2023-02-19T01:52:24;97130.00;;;16.69;43.21
61324;BME280;47203;48.428;11.974;2023-02-19T01:54:31;97119.97;;;16.66;42.87
61324;BME280;47203;48.428;11.974;2023-02-19T01:56:39;97118.69;;;16.63;43.10
61324;BME280;47203;48.428;11.974;2023-02-19T01:58:45;97119.78;;;16.62;43.12
61324;BME280;47203;48.428;11.974;2023-02-19T02:00:50;97118.69;;;16.63;43.38
61324;BME280;47203;48.428;11.974;2023-02-19T02:02:55;97109.16;;;16.62;43.04
61324;BME280;47203;48.428;11.974;2023-02-19T02:05:04;97109.91;;;16.63;43.24
61324;BME280;47203;48.428;11.974;2023-02-19T02:07:11;97104.31;;;16.64;42.79
61324;BME280;47203;48.428;11.974;2023-02-19T02:09:28;97098.69;;;16.66;42.91
61324;BME280;47203;48.428;11.974;2023-02-19T02:11:47;97094.19;;;16.66;43.11
61324;BME280;47203;48.428;11.974;2023-02-19T02:13:54;97091.53;;;16.66;42.98
61324;BME280;47203;48.428;11.974;2023-02-19T02:16:01;97101.88;;;16.68;42.68
61324;BME280;47203;48.428;11.974;2023-02-19T02:18:10;97098.13;;;16.69;42.71
61324;BME280;47203;48.428;11.974;2023-02-19T02:20:30;97086.41;;;16.70;42.96
61324;BME280;47203;48.428;11.974;2023-02-19T02:22:36;97089.06;;;16.70;42.69
61324;BME280;47203;48.428;11.974;2023-02-19T02:27:09;97088.78;;;16.71;42.61
61324;BME280;47203;48.428;11.974;2023-02-19T02:31:47;97088.59;;;16.68;43.00
61324;BME280;47203;48.428;11.974;2023-02-19T02:33:56;97086.72;;;16.68;42.99
61324;BME280;47203;48.428;11.974;2023-02-19T02:36:04;97081.38;;;16.68;42.69
61324;BME280;47203;48.428;11.974;2023-02-19T02:38:12;97084.53;;;16.70;42.94
61324;BME280;47203;48.428;11.974;2023-02-19T02:40:17;97076.06;;;16.68;43.00
61324;BME280;47203;48.428;11.974;2023-02-19T02:42:23;97078.25;;;16.66;42.74
61324;BME280;47203;48.428;11.974;2023-02-19T02:44:40;97076.44;;;16.62;42.87
61324;BME280;47203;48.428;11.974;2023-02-19T02:47:09;97068.78;;;16.60;42.77
61324;BME280;47203;48.428;11.974;2023-02-19T02:49:34;97065.56;;;16.63;43.20
61324;BME280;47203;48.428;11.974;2023-02-19T02:52:00;97060.50;;;16.62;42.77
61324;BME280;47203;48.428;11.974;2023-02-19T02:54:26;97064.56;;;16.59;42.87
61324;BME280;47203;48.428;11.974;2023-02-19T02:56:47;97068.00;;;16.60;43.25
61324;BME280;47203;48.428;11.974;2023-02-19T02:58:53;97060.81;;;16.60;42.80
61324;BME280;47203;48.428;11.974;2023-02-19T03:01:00;97061.09;;;16.58;42.77
61324;BME280;47203;48.428;11.974;2023-02-19T03:03:21;97048.41;;;16.55;43.22
61324;BME280;47203;48.428;11.974;2023-02-19T03:05:26;97045.75;;;16.55;43.23
61324;BME280;47203;48.428;11.974;2023-02-19T03:07:45;97051.06;;;16.55;43.28
61324;BME280;47203;48.428;11.974;2023-02-19T03:09:51;97021.94;;;16.50;43.20
61324;BME280;47203;48.428;11.974;2023-02-19T03:11:58;97006.09;;;16.45;43.10
61324;BME280;47203;48.428;11.974;2023-02-19T03:14:19;97022.13;;;16.40;43.08
61324;BME280;47203;48.428;11.974;2023-02-19T03:16:37;97031.47;;;16.37;43.20
61324;BME280;47203;48.428;11.974;2023-02-19T03:18:58;97025.38;;;16.37;43.35
61324;BME280;47203;48.428;11.974;2023-02-19T03:21:16;97025.16;;;16.33;43.10
61324;BME280;47203;48.428;11.974;2023-02-19T03:23:22;97033.13;;;16.33;43.08
61324;BME280;47203;48.428;11.974;2023-02-19T03:25:51;97023.41;;;16.29;43.37
61324;BME280;47203;48.428;11.974;2023-02-19T03:28:15;97018.69;;;16.26;43.45
61324;BME280;47203;48.428;11.974;2023-02-19T03:30:21;97025.84;;;16.25;43.41
61324;BME280;47203;48.428;11.974;2023-02-19T03:32:28;97009.41;;;16.23;43.24
61324;BME280;47203;48.428;11.974;2023-02-19T03:34:37;97008.63;;;16.22;43.50
61324;BME280;47203;48.428;11.974;2023-02-19T03:36:47;97007.84;;;16.22;43.21
61324;BME280;47203;48.428;11.974;2023-02-19T03:38:55;97002.34;;;16.18;43.52
61324;BME280;47203;48.428;11.974;2023-02-19T03:41:03;97008.53;;;16.14;43.25
61324;BME280;47203;48.428;11.974;2023-02-19T03:43:13;97011.19;;;16.14;43.38
61324;BME280;47203;48.428;11.974;2023-02-19T03:45:30;97011.19;;;16.14;43.37
61324;BME280;47203;48.428;11.974;2023-02-19T03:47:39;97009.41;;;16.09;43.51
61324;BME280;47203;48.428;11.974;2023-02-19T03:49:50;97004.47;;;16.02;43.43
61324;BME280;47203;48.428;11.974;2023-02-19T03:52:00;97008.78;;;15.98;43.36
61324;BME280;47203;48.428;11.974;2023-02-19T03:54:10;97012.22;;;15.99;43.47
61324;BME280;47203;48.428;11.974;2023-02-19T03:56:18;97006.91;;;15.99;43.50
61324;BME280;47203;48.428;11.974;2023-02-19T03:58:27;97002.41;;;15.99;43.43
61324;BME280;47203;48.428;11.974;2023-02-19T04:00:36;97010.38;;;15.99;43.31
61324;BME280;47203;48.428;11.974;2023-02-19T04:02:43;97005.84;;;16.00;43.47
61324;BME280;47203;48.428;11.974;2023-02-19T04:04:55;97018.34;;;15.99;43.65
61324;BME280;47203;48.428;11.974;2023-02-19T04:07:04;97015.16;;;15.97;43.55
61324;BME280;47203;48.428;11.974;2023-02-19T04:09:11;97020.75;;;15.96;43.55
61324;BME280;47203;48.428;11.974;2023-02-19T04:11:22;97017.41;;;15.90;43.64
61324;BME280;47203;48.428;11.974;2023-02-19T04:13:33;97012.97;;;15.85;43.53
61324;BME280;47203;48.428;11.974;2023-02-19T04:15:40;97012.78;;;15.82;43.77
61324;BME280;47203;48.428;11.974;2023-02-19T04:17:48;97013.06;;;15.80;43.73
61324;BME280;47203;48.428;11.974;2023-02-19T04:19:57;97010.72;;;15.79;43.52
61324;BME280;47203;48.428;11.974;2023-02-19T04:22:04;97008.59;;;15.76;43.82
61324;BME280;47203;48.428;11.974;2023-02-19T04:24:10;97014.22;;;15.74;43.81
61324;BME280;47203;48.428;11.974;2023-02-19T04:26:16;97010.56;;;15.70;43.73
61324;BME280;47203;48.428;11.974;2023-02-19T04:28:23;97019.88;;;15.67;43.88
61324;BME280;47203;48.428;11.974;2023-02-19T04:30:27;97007.19;;;15.64;43.83
61324;BME280;47203;48.428;11.974;2023-02-19T04:32:32;97006.13;;;15.65;43.87
61324;BME280;47203;48.428;11.974;2023-02-19T04:34:37;97011.97;;;15.62;43.84
61324;BME280;47203;48.428;11.974;2023-02-19T04:36:44;97019.44;;;15.60;43.89
61324;BME280;47203;48.428;11.974;2023-02-19T04:38:48;97026.06;;;15.63;43.79
61324;BME280;47203;48.428;11.974;2023-02-19T04:40:53;97022.09;;;15.60;44.05
61324;BME280;47203;48.428;11.974;2023-02-19T04:42:57;97016.03;;;15.60;43.67
61324;BME280;47203;48.428;11.974;2023-02-19T04:45:02;97017.09;;;15.59;43.63
61324;BME280;47203;48.428;11.974;2023-02-19T04:47:07;97015.78;;;15.56;43.86
61324;BME280;47203;48.428;11.974;2023-02-19T04:49:12;97016.59;;;15.57;43.73
61324;BME280;47203;48.428;11.974;2023-02-19T04:51:16;97018.16;;;15.58;43.72
61324;BME280;47203;48.428;11.974;2023-02-19T04:53:23;97016.31;;;15.58;43.90
61324;BME280;47203;48.428;11.974;2023-02-19T04:55:28;97034.59;;;15.60;43.76
61324;BME280;47203;48.428;11.974;2023-02-19T04:57:32;97034.06;;;15.58;43.84
61324;BME280;47203;48.428;11.974;2023-02-19T04:59:37;97032.81;;;15.55;43.66
61324;BME280;47203;48.428;11.974;2023-02-19T05:01:42;97041.31;;;15.52;43.77
61324;BME280;47203;48.428;11.974;2023-02-19T05:03:46;97029.72;;;15.48;43.81
61324;BME280;47203;48.428;11.974;2023-02-19T05:05:51;97028.91;;;15.47;43.82
61324;BME280;47203;48.428;11.974;2023-02-19T05:07:56;97035.59;;;15.45;44.20
61324;BME280;47203;48.428;11.974;2023-02-19T05:10:03;97028.19;;;15.42;43.76
61324;BME280;47203;48.428;11.974;2023-02-19T05:12:08;97033.03;;;15.40;43.79
61324;BME280;47203;48.428;11.974;2023-02-19T05:14:12;97032.78;;;15.36;43.86
61324;BME280;47203;48.428;11.974;2023-02-19T05:16:17;97029.66;;;15.34;44.27
61324;BME280;47203;48.428;11.974;2023-02-19T05:18:22;97036.25;;;15.36;44.06
61324;BME280;47203;48.428;11.974;2023-02-19T05:20:26;97038.63;;;15.38;44.23
61324;BME280;47203;48.428;11.974;2023-02-19T05:22:31;97044.13;;;15.42;44.00
61324;BME280;47203;48.428;11.974;2023-02-19T05:24:35;97041.19;;;15.43;43.86
61324;BME280;47203;48.428;11.974;2023-02-19T05:26:43;97064.84;;;15.40;43.88
61324;BME280;47203;48.428;11.974;2023-02-19T05:28:51;97040.75;;;15.36;43.95
61324;BME280;47203;48.428;11.974;2023-02-19T05:30:55;97048.69;;;15.36;43.83
61324;BME280;47203;48.428;11.974;2023-02-19T05:33:00;97041.84;;;15.35;43.77
61324;BME280;47203;48.428;11.974;2023-02-19T05:35:05;97050.38;;;15.32;43.86
61324;BME280;47203;48.428;11.974;2023-02-19T05:37:09;97045.34;;;15.30;44.00
61324;BME280;47203;48.428;11.974;2023-02-19T05:39:14;97047.19;;;15.30;44.34
61324;BME280;47203;48.428;11.974;2023-02-19T05:41:19;97042.72;;;15.30;43.86
61324;BME280;47203;48.428;11.974;2023-02-19T05:43:26;97043.00;;;15.29;43.94
61324;BME280;47203;48.428;11.974;2023-02-19T05:45:31;97040.59;;;15.27;44.33
61324;BME280;47203;48.428;11.974;2023-02-19T05:47:36;97053.38;;;15.25;44.16
61324;BME280;47203;48.428;11.974;2023-02-19T05:49:40;97061.63;;;15.24;44.41
61324;BME280;47203;48.428;11.974;2023-02-19T05:51:45;97055.53;;;15.23;44.20
61324;BME280;47203;48.428;11.974;2023-02-19T05:53:49;97057.66;;;15.21;44.45
61324;BME280;47203;48.428;11.974;2023-02-19T05:55:54;97073.06;;;15.19;44.26
61324;BME280;47203;48.428;11.974;2023-02-19T05:57:59;97065.69;;;15.16;44.25
61324;BME280;47203;48.428;11.974;2023-02-19T06:00:07;97065.47;;;15.12;44.29
61324;BME280;47203;48.428;11.974;2023-02-19T06:02:15;97081.44;;;15.07;44.37
61324;BME280;47203;48.428;11.974;2023-02-19T06:04:19;97063.75;;;15.03;44.27
61324;BME280;47203;48.428;11.974;2023-02-19T06:06:24;97069.81;;;15.03;44.15
61324;BME280;47203;48.428;11.974;2023-02-19T06:08:30;97070.59;;;15.04;44.37
61324;BME280;47203;48.428;11.974;2023-02-19T06:10:34;97077.00;;;15.03;44.15
61324;BME280;47203;48.428;11.974;2023-02-19T06:12:40;97072.47;;;15.03;44.24
61324;BME280;47203;48.428;11.974;2023-02-19T06:14:45;97086.00;;;15.01;44.54
61324;BME280;47203;48.428;11.974;2023-02-19T06:16:52;97069.59;;;14.99;44.46
61324;BME280;47203;48.428;11.974;2023-02-19T06:18:57;97079.19;;;14.95;44.40
61324;BME280;47203;48.428;11.974;2023-02-19T06:21:01;97081.84;;;14.95;44.69
61324;BME280;47203;48.428;11.974;2023-02-19T06:23:06;97084.78;;;14.94;44.31
61324;BME280;47203;48.428;11.974;2023-02-19T06:25:11;97086.34;;;14.95;44.71
61324;BME280;47203;48.428;11.974;2023-02-19T06:27:15;97081.28;;;14.98;44.62
61324;BME280;47203;48.428;11.974;2023-02-19T06:29:20;97092.94;;;14.97;44.61
61324;BME280;47203;48.428;11.974;2023-02-19T06:31:24;97096.66;;;14.96;44.49
61324;BME280;47203;48.428;11.974;2023-02-19T06:33:31;97092.94;;;14.97;44.33
61324;BME280;47203;48.428;11.974;2023-02-19T06:35:36;97087.94;;;14.96;44.34
61324;BME280;47203;48.428;11.974;2023-02-19T06:37:41;97104.63;;;14.96;44.29
61324;BME280;47203;48.428;11.974;2023-02-19T06:39:45;97104.63;;;14.96;44.51
61324;BME280;47203;48.428;11.974;2023-02-19T06:41:53;97103.34;;;14.94;44.71
61324;BME280;47203;48.428;11.974;2023-02-19T06:43:58;97106.28;;;14.92;44.42
61324;BME280;47203;48.428;11.974;2023-02-19T06:46:03;97113.66;;;14.95;44.42
61324;BME280;47203;48.428;11.974;2023-02-19T06:48:08;97110.19;;;14.95;44.44
61324;BME280;47203;48.428;11.974;2023-02-19T06:50:15;97116.81;;;14.97;44.69
61324;BME280;47203;48.428;11.974;2023-02-19T06:52:20;97113.66;;;14.95;44.64
61324;BME280;47203;48.428;11.974;2023-02-19T06:54:24;97130.06;;;14.97;44.69
61324;BME280;47203;48.428;11.974;2023-02-19T06:56:29;97122.59;;;14.99;44.51
61324;BME280;47203;48.428;11.974;2023-02-19T06:58:34;97137.97;;;15.03;44.53
61324;BME280;47203;48.428;11.974;2023-02-19T07:00:38;97115.66;;;15.04;44.32
61324;BME280;47203;48.428;11.974;2023-02-19T07:02:43;97126.56;;;15.02;44.75
61324;BME280;47203;48.428;11.974;2023-02-19T07:04:47;97135.59;;;15.01;44.60
61324;BME280;47203;48.428;11.974;2023-02-19T07:06:55;97151.72;;;15.05;44.64
61324;BME280;47203;48.428;11.974;2023-02-19T07:09:00;97151.44;;;15.06;44.25
61324;BME280;47203;48.428;11.974;2023-02-19T07:11:05;97156.69;;;15.11;44.38
61324;BME280;47203;48.428;11.974;2023-02-19T07:13:10;97157.97;;;15.14;44.26
61324;BME280;47203;48.428;11.974;2023-02-19T07:15:15;97165.91;;;15.14;44.58
61324;BME280;47203;48.428;11.974;2023-02-19T07:17:20;97170.66;;;15.17;44.58
61324;BME280;47203;48.428;11.974;2023-02-19T07:19:25;97173.84;;;15.19;44.55
61324;BME280;47203;48.428;11.974;2023-02-19T07:21:29;97178.56;;;15.22;44.33
61324;BME280;47203;48.428;11.974;2023-02-19T07:23:41;97179.06;;;15.24;44.25
61324;BME280;47203;48.428;11.974;2023-02-19T07:25:46;97185.47;;;15.23;44.31
61324;BME280;47203;48.428;11.974;2023-02-19T07:27:50;97176.41;;;15.24;44.23
61324;BME280;47203;48.428;11.974;2023-02-19T07:29:54;97181.44;;;15.26;44.45
61324;BME280;47203;48.428;11.974;2023-02-19T07:31:59;97183.59;;;15.24;44.34
61324;BME280;47203;48.428;11.974;2023-02-19T07:34:05;97194.69;;;15.26;44.36
61324;BME280;47203;48.428;11.974;2023-02-19T07:36:10;97186.44;;;15.27;44.44
61324;BME280;47203;48.428;11.974;2023-02-19T07:38:15;97201.28;;;15.28;44.23
61324;BME280;47203;48.428;11.974;2023-02-19T07:40:22;97199.94;;;15.31;44.51
61324;BME280;47203;48.428;11.974;2023-02-19T07:42:27;97201.53;;;15.32;44.25
61324;BME280;47203;48.428;11.974;2023-02-19T07:44:32;97217.16;;;15.33;44.42
61324;BME280;47203;48.428;11.974;2023-02-19T07:46:36;97207.34;;;15.34;44.14
61324;BME280;47203;48.428;11.974;2023-02-19T07:48:41;97214.22;;;15.35;44.04
61324;BME280;47203;48.428;11.974;2023-02-19T07:50:49;97217.66;;;15.35;44.37
61324;BME280;47203;48.428;11.974;2023-02-19T07:52:54;97215.00;;;15.35;44.19
61324;BME280;47203;48.428;11.974;2023-02-19T07:54:58;97216.59;;;15.36;44.24
61324;BME280;47203;48.428;11.974;2023-02-19T07:57:06;97224.56;;;15.36;44.32
61324;BME280;47203;48.428;11.974;2023-02-19T07:59:10;97229.06;;;15.36;44.19
61324;BME280;47203;48.428;11.974;2023-02-19T08:01:17;97227.50;;;15.35;43.86
61324;BME280;47203;48.428;11.974;2023-02-19T08:03:42;97230.44;;;15.33;43.91
61324;BME280;47203;48.428;11.974;2023-02-19T08:05:44;97237.56;;;15.33;43.95
61324;BME280;47203;48.428;11.974;2023-02-19T08:07:50;97232.56;;;15.31;44.13
61324;BME280;47203;48.428;11.974;2023-02-19T08:09:55;97232.84;;;15.30;44.31
61324;BME280;47203;48.428;11.974;2023-02-19T08:12:25;97227.25;;;15.31;43.98
61324;BME280;47203;48.428;11.974;2023-02-19T08:14:42;97235.72;;;15.33;44.14
61324;BME280;47203;48.428;11.974;2023-02-19T08:16:47;97225.91;;;15.34;44.14
61324;BME280;47203;48.428;11.974;2023-02-19T08:18:51;97231.22;;;15.34;44.25
61324;BME280;47203;48.428;11.974;2023-02-19T08:20:57;97242.59;;;15.34;44.20
61324;BME280;47203;48.428;11.974;2023-02-19T08:23:02;97231.97;;;15.34;44.32
61324;BME280;47203;48.428;11.974;2023-02-19T08:25:07;97246.06;;;15.35;44.01
61324;BME280;47203;48.428;11.974;2023-02-19T08:27:11;97245.25;;;15.34;44.24
61324;BME280;47203;48.428;11.974;2023-02-19T08:29:19;97239.66;;;15.36;44.39
61324;BME280;47203;48.428;11.974;2023-02-19T08:31:23;97244.19;;;15.35;44.27
61324;BME280;47203;48.428;11.974;2023-02-19T08:33:28;97261.16;;;15.34;44.11
61324;BME280;47203;48.428;11.974;2023-02-19T08:35:33;97251.13;;;15.31;44.20
61324;BME280;47203;48.428;11.974;2023-02-19T08:37:38;97242.09;;;15.32;44.29
61324;BME280;47203;48.428;11.974;2023-02-19T08:39:43;97250.06;;;15.32;44.54
61324;BME280;47203;48.428;11.974;2023-02-19T08:41:48;97260.38;;;15.34;44.39
61324;BME280;47203;48.428;11.974;2023-02-19T08:43:52;97254.28;;;15.33;44.48
61324;BME280;47203;48.428;11.974;2023-02-19T08:45:59;97253.28;;;15.29;44.45
61324;BME280;47203;48.428;11.974;2023-02-19T08:48:04;97254.34;;;15.28;44.27
61324;BME280;47203;48.428;11.974;2023-02-19T08:50:09;97256.41;;;15.31;44.28
61324;BME280;47203;48.428;11.974;2023-02-19T08:52:14;97258.22;;;15.36;44.48
61324;BME280;47203;48.428;11.974;2023-02-19T08:54:19;97267.22;;;15.40;44.57
61324;BME280;47203;48.428;11.974;2023-02-19T08:56:23;97261.34;;;15.43;44.23
61324;BME280;47203;48.428;11.974;2023-02-19T08:58:28;97260.50;;;15.48;44.20
61324;BME280;47203;48.428;11.974;2023-02-19T09:00:33;97251.47;;;15.49;44.25
61324;BME280;47203;48.428;11.974;2023-02-19T09:02:40;97266.31;;;15.50;44.19
61324;BME280;47203;48.428;11.974;2023-02-19T09:04:45;97276.94;;;15.50;44.33
61324;BME280;47203;48.428;11.974;2023-02-19T09:06:49;97265.75;;;15.53;44.27
61324;BME280;47203;48.428;11.974;2023-02-19T09:08:54;97268.63;;;15.57;44.61
61324;BME280;47203;48.428;11.974;2023-02-19T09:10:58;97270.72;;;15.60;44.64
61324;BME280;47203;48.428;11.974;2023-02-19T09:13:04;97276.81;;;15.60;44.46
61324;BME280;47203;48.428;11.974;2023-02-19T09:15:08;97276.53;;;15.62;44.53
61324;BME280;47203;48.428;11.974;2023-02-19T09:17:13;97274.94;;;15.61;44.29
61324;BME280;47203;48.428;11.974;2023-02-19T09:19:20;97282.13;;;15.60;44.38
61324;BME280;47203;48.428;11.974;2023-02-19T09:21:25;97267.25;;;15.59;44.54
61324;BME280;47203;48.428;11.974;2023-02-19T09:23:31;97267.25;;;15.59;44.58
61324;BME280;47203;48.428;11.974;2023-02-19T09:25:36;97268.84;;;15.60;44.45
61324;BME280;47203;48.428;11.974;2023-02-19T09:27:40;97272.00;;;15.62;44.12
61324;BME280;47203;48.428;11.974;2023-02-19T09:29:45;97273.03;;;15.66;44.17
61324;BME280;47203;48.428;11.974;2023-02-19T09:31:49;97276.69;;;15.70;44.26
61324;BME280;47203;48.428;11.974;2023-02-19T09:33:54;97280.84;;;15.77;44.52
61324;BME280;47203;48.428;11.974;2023-02-19T09:36:01;97280.84;;;15.82;44.05
61324;BME280;47203;48.428;11.974;2023-02-19T09:38:06;97287.91;;;15.92;44.55
61324;BME280;47203;48.428;11.974;2023-02-19T09:40:11;97283.69;;;16.10;44.42
61324;BME280;47203;48.428;11.974;2023-02-19T09:42:22;97287.06;;;16.34;44.40
61324;BME280;47203;48.428;11.974;2023-02-19T09:44:28;97287.63;;;16.50;44.59
61324;BME280;47203;48.428;11.974;2023-02-19T09:46:34;97289.06;;;16.62;44.34
61324;BME280;47203;48.428;11.974;2023-02-19T09:48:41;97300.25;;;16.78;44.52
61324;BME280;47203;48.428;11.974;2023-02-19T09:50:46;97285.56;;;16.99;44.31
61324;BME280;47203;48.428;11.974;2023-02-19T09:52:54;97297.53;;;17.16;44.15
61324;BME280;47203;48.428;11.974;2023-02-19T09:55:02;97283.25;;;17.25;44.13
61324;BME280;47203;48.428;11.974;2023-02-19T09:57:09;97284.75;;;17.32;44.00
61324;BME280;47203;48.428;11.974;2023-02-19T09:59:18;97289.22;;;17.36;43.73
61324;BME280;47203;48.428;11.974;2023-02-19T10:01:24;97291.75;;;17.41;44.04
61324;BME280;47203;48.428;11.974;2023-02-19T10:03:31;97301.81;;;17.44;43.87
61324;BME280;47203;48.428;11.974;2023-02-19T10:05:36;97298.25;;;17.49;43.88
61324;BME280;47203;48.428;11.974;2023-02-19T10:07:42;97305.16;;;17.50;43.83
61324;BME280;47203;48.428;11.974;2023-02-19T10:09:51;97306.66;;;17.56;43.88
61324;BME280;47203;48.428;11.974;2023-02-19T10:11:57;97315.63;;;17.60;43.96
61324;BME280;47203;48.428;11.974;2023-02-19T10:14:03;97308.94;;;17.63;43.47
61324;BME280;47203;48.428;11.974;2023-02-19T10:16:10;97330.22;;;17.63;43.43
61324;BME280;47203;48.428;11.974;2023-02-19T10:18:18;97319.09;;;17.61;43.22
61324;BME280;47203;48.428;11.974;2023-02-19T10:20:24;97330.31;;;17.58;43.31
61324;BME280;47203;48.428;11.974;2023-02-19T10:22:29;97332.78;;;17.54;42.86
61324;BME280;47203;48.428;11.974;2023-02-19T10:24:35;97344.31;;;17.50;42.97
61324;BME280;47203;48.428;11.974;2023-02-19T10:26:42;97337.22;;;17.45;43.14
61324;BME280;47203;48.428;11.974;2023-02-19T10:28:47;97337.50;;;17.43;43.02
61324;BME280;47203;48.428;11.974;2023-02-19T10:30:52;97344.19;;;17.41;42.86
61324;BME280;47203;48.428;11.974;2023-02-19T10:32:58;97328.53;;;17.39;43.01
61324;BME280;47203;48.428;11.974;2023-02-19T10:35:07;97347.75;;;17.36;42.85
61324;BME280;47203;48.428;11.974;2023-02-19T10:37:12;97356.28;;;17.33;43.00
61324;BME280;47203;48.428;11.974;2023-02-19T10:39:28;97345.44;;;17.30;43.03
61324;BME280;47203;48.428;11.974;2023-02-19T10:41:38;97355.91;;;17.26;42.91
61324;BME280;47203;48.428;11.974;2023-02-19T10:43:49;97367.09;;;17.23;42.78
61324;BME280;47203;48.428;11.974;2023-02-19T10:45:55;97362.34;;;17.20;42.59
61324;BME280;47203;48.428;11.974;2023-02-19T10:48:01;97340.88;;;17.16;42.97
61324;BME280;47203;48.428;11.974;2023-02-19T10:50:14;97358.22;;;17.14;42.76
61324;BME280;47203;48.428;11.974;2023-02-19T10:52:22;97346.56;;;17.09;42.90
61324;BME280;47203;48.428;11.974;2023-02-19T10:54:28;97350.88;;;17.05;42.92
61324;BME280;47203;48.428;11.974;2023-02-19T10:56:33;97354.13;;;17.02;42.90
61324;BME280;47203;48.428;11.974;2023-02-19T10:58:39;97343.78;;;17.01;42.97
61324;BME280;47203;48.428;11.974;2023-02-19T11:00:47;97347.25;;;17.01;42.71
61324;BME280;47203;48.428;11.974;2023-02-19T11:03:13;97351.28;;;16.99;42.43
61324;BME280;47203;48.428;11.974;2023-02-19T11:05:21;97348.38;;;16.95;42.52
61324;BME280;47203;48.428;11.974;2023-02-19T11:07:26;97345.25;;;16.93;42.73
61324;BME280;47203;48.428;11.974;2023-02-19T11:09:32;97346.59;;;16.90;42.73